Aviation Digital Data Service (ADDS)

Output produced by METARs form (0213 UTC 20 September 2017)
found at http://www.aviationweather.gov/adds/metars/
 
KBFD 200153Z AUTO 00000KT 10SM CLR 14/14 A3004 RMK AO2 SLP164 T01440139
KBFD 200053Z AUTO 00000KT 10SM CLR 17/14 A3004 RMK AO2 SLP165 T01670144
KBFD 192353Z AUTO 00000KT 10SM CLR 17/15 A3004 RMK AO2 SLP162 T01720150 10261 20172 51006
KBFD 192253Z AUTO 00000KT 10SM CLR 22/13 A3003 RMK AO2 SLP157 T02170133
KBFD 192153Z AUTO 05005KT 10SM CLR 24/13 A3003 RMK AO2 SLP152 T02440128
KBFD 192053Z AUTO 07003KT 10SM CLR 25/13 A3002 RMK AO2 SLP149 T02500133 56016
KBFD 191953Z AUTO 00000KT 10SM CLR 26/14 A3003 RMK AO2 SLP151 T02560144
KBFD 191853Z AUTO 15004KT 10SM CLR 24/14 A3005 RMK AO2 SLP160 T02440144
KBFD 191753Z AUTO 00000KT 10SM CLR 24/16 A3007 RMK AO2 SLP167 T02390156 10239 20167 58015
KBFD 191653Z AUTO 31003KT 10SM CLR 22/16 A3009 RMK AO2 SLP175 T02220156
KBFD 191553Z AUTO 00000KT 10SM CLR 21/16 A3010 RMK AO2 SLP181 T02110156
KBFD 191453Z AUTO 10004KT 10SM SCT016 19/16 A3011 RMK AO2 SLP186 T01890156 50001
KBFD 191443Z AUTO 14005KT 10SM BKN016 19/16 A3012 RMK AO2 T01890156
KBFD 191353Z AUTO VRB04KT 10SM OVC012 18/16 A3012 RMK AO2 SLP187 T01830156
KBFD 191327Z AUTO VRB05KT 10SM BKN012 17/15 A3012 RMK AO2 T01720150
KBFD 191320Z AUTO 16005KT 10SM SCT012 17/15 A3012 RMK AO2 T01720150
KBFD 191253Z AUTO 14007KT 10SM BKN012 17/15 A3012 RMK AO2 SLP187 T01720150
KBFD 191227Z AUTO 14006KT 9SM BKN011 17/16 A3011 RMK AO2 T01670161
KBFD 191153Z AUTO 15004KT 9SM OVC007 17/16 A3011 RMK AO2 SLP185 70021 T01670156 10167 20144 53005
KBFD 191053Z AUTO 14005KT 6SM BR OVC005 16/16 A3010 RMK AO2 SLP181 T01610161
KBFD 191001Z AUTO 15008KT 7SM OVC005 16/16 A3010 RMK AO2 CIG 002V008 T01610161
KBFD 190953Z AUTO 15006KT 5SM BR BKN002 OVC007 16/16 A3010 RMK AO2 SLP179 T01610161
KBFD 190942Z AUTO 14007KT 3SM BR OVC002 16/16 A3010 RMK AO2 T01610161
KBFD 190939Z AUTO 14006KT 1 1/4SM BR OVC002 16/16 A3010 RMK AO2 T01610161
KBFD 190853Z AUTO 00000KT 1/4SM FG VV001 16/16 A3009 RMK AO2 SLP177 T01560156 56002
KBFD 190848Z AUTO 00000KT 1/4SM FG VV001 16/16 A3009 RMK AO2
KBFD 190838Z AUTO 13003KT 3/4SM BR OVC002 16/16 A3010 RMK AO2 T01560156
KBFD 190832Z AUTO 00000KT 2SM BR OVC002 16/16 A3010 RMK AO2 T01560156
KBFD 190814Z AUTO 00000KT 3SM BR OVC002 16/16 A3009 RMK AO2 T01560156
KBFD 190807Z AUTO 00000KT 1 3/4SM BR OVC002 16/16 A3009 RMK AO2 T01610161
KBFD 190803Z AUTO 00000KT 2SM BR OVC003 16/16 A3009 RMK AO2 T01610161
KBFD 190753Z AUTO 00000KT 3SM BR OVC003 16/16 A3009 RMK AO2 SLP175 T01610161
KBFD 190719Z AUTO 15003KT 5SM BR OVC004 17/17 A3009 RMK AO2 T01670167
KBFD 190653Z AUTO 14004KT 5SM BR BKN007 16/16 A3010 RMK AO2 CIG 006V009 SLP179 T01560156
KBFD 190640Z AUTO 13004KT 3SM BR FEW002 BKN009 14/14 A3010 RMK AO2 T01440144
KBFD 190634Z AUTO 12005KT 2SM BR FEW002 SCT009 15/15 A3010 RMK AO2 T01500150
KBFD 190629Z AUTO 13004KT 1SM BR VV002 16/16 A3011 RMK AO2 T01560156
KBFD 190612Z AUTO 12004KT 1/4SM FG VV002 15/15 A3011 RMK AO2 T01500150
KBFD 190610Z AUTO 13004KT 1/2SM FG VV003 15/15 A3011 RMK AO2 T01500150
KBFD 190605Z AUTO 13003KT 1 1/4SM BR CLR 15/15 A3011 RMK AO2 T01500150
KBFD 190553Z AUTO 00000KT 6SM BR CLR 16/16 A3011 RMK AO2 SLP184 T01610161 10206 20156 58004
KBFD 190546Z AUTO 15003KT 6SM BR CLR 16/16 A3011 RMK AO2 T01560156
KBFD 190539Z AUTO 14003KT 2SM BR FEW040 16/16 A3011 RMK AO2 T01610161
KBFD 190526Z AUTO 13004KT 1/2SM FG FEW040 SCT090 16/16 A3011 RMK AO2 T01560156
KBFD 190509Z AUTO 12003KT 1/4SM FG FEW041 BKN090 16/16 A3012 RMK AO2 T01610161
KBFD 190504Z AUTO 00000KT 1 1/4SM BR BKN090 17/17 A3012 RMK AO2 T01670167
KBFD 190453Z AUTO 00000KT 5SM BR BKN090 17/17 A3012 RMK AO2 SLP185 T01670167 402500156
KBFD 190430Z AUTO 00000KT 3SM BR FEW043 OVC090 17/17 A3012 RMK AO2 T01670167
KBFD 190417Z AUTO 13003KT 1 3/4SM BR BKN090 17/17 A3012 RMK AO2 T01720172
KBFD 190353Z AUTO 00000KT 4SM BR BKN095 17/17 A3012 RMK AO2 SLP185 T01720172
KBFD 190253Z AUTO 00000KT 8SM OVC080 18/18 A3013 RMK AO2 SLP187 T01780178 53005
KBFD 190157Z AUTO 00000KT 3SM BR FEW002 SCT080 18/18 A3012 RMK AO2 T01780178
KBFD 190153Z AUTO 00000KT 1SM BR FEW002 SCT075 18/18 A3012 RMK AO2 SLP186 T01780178
KBFD 190146Z AUTO 00000KT 1 1/4SM BR FEW002 FEW075 18/18 A3012 RMK AO2 T01830183
KBFD 190053Z AUTO 00000KT 10SM BKN080 20/19 A3011 RMK AO2 SLP184 T02000189
KBFD 182353Z AUTO 00000KT 10SM FEW044 SCT060 BKN085 21/19 A3011 RMK AO2 SLP184 T02060194 10250 20200 53002
KBFD 182253Z AUTO 00000KT 10SM OVC080 22/19 A3010 RMK AO2 SLP181 T02220189
KBFD 182153Z AUTO 00000KT 10SM SCT110 23/19 A3010 RMK AO2 SLP180 T02330189
KBFD 182053Z AUTO 00000KT 10SM SCT100 24/18 A3011 RMK AO2 SLP180 T02440178 56009
KBFD 181953Z AUTO 00000KT 10SM SCT075 OVC100 24/17 A3011 RMK AO2 SLP183 T02390172
KBFD 181853Z AUTO 00000KT 10SM BKN065 OVC100 24/18 A3012 RMK AO2 SLP184 T02390178
KBFD 181753Z AUTO 00000KT 10SM SCT045 OVC085 24/19 A3014 RMK AO2 RAE26 SLP190 P0009 60021 T02390189 10244 20172 58006
KBFD 181713Z AUTO 00000KT 10SM -RA FEW030 BKN065 OVC080 22/19 A3014 RMK AO2 P0009 T02220189
KBFD 181706Z AUTO 00000KT 2 1/2SM -RA SCT030 BKN039 OVC080 22/18 A3015 RMK AO2 P0009 T02220178
KBFD 181701Z AUTO 33003KT 3/4SM +RA SCT030 BKN037 OVC065 22/18 A3015 RMK AO2 P0009 T02170178
KBFD 181653Z AUTO 00000KT 1 3/4SM +RA BKN030 BKN037 OVC047 23/18 A3015 RMK AO2 RAB50 SLP197 P0012 T02280178
KBFD 181553Z AUTO 00000KT 10SM BKN090 23/17 A3015 RMK AO2 SLP195 T02330172
KBFD 181453Z AUTO 00000KT 10SM SCT090 23/18 A3015 RMK AO2 SLP196 T02330178 58001